Latest Weather Observations for Karratha

IDW60801

Issued at 10:03 am WST Wednesday 26 April 2017 (issued every 30 minutes, with the page automatically refreshed every 10 minutes)

About weather observations | Map of weather stations | Latest weather observations for WA | Other Formats
Station Details ID: 004083 Name: KARRATHA AERO Lat: -20.71 Lon: 116.77 Height: 5.3 m
Data from the previous 72 hours. | See also: Recent months at Karratha
Date/Time
WST
Temp
°C
App
Temp
°C
Dew
Point
°C
Rel
Hum
%
Delta-T
°C
Wind Press
QNH
hPa
Press
MSL
hPa
Rain since
9am
mm
Dir  Spd
km/h
Gust
km/h
Spd
kts
Gust
kts
26/10:00am 29.8 27.1 17.6 48 7.7 E 28 35 15 19 1015.8 1015.8 0.0
26/09:30am 29.4 26.5 17.9 50 7.3 ESE 30 37 16 20 1015.8 1015.8 0.0
26/09:00am 28.0 26.0 18.4 56 6.1 ESE 26 35 14 19 1015.7 1015.7 0.0
26/08:30am 26.9 26.2 18.7 60 5.2 ESE 20 30 11 16 1015.7 1015.7 0.0
26/08:00am 26.5 26.1 19.4 65 4.6 ESE 20 28 11 15 1015.6 1015.6 0.0
26/07:30am 26.0 25.7 19.6 68 4.1 ESE 20 28 11 15 1015.3 1015.3 0.0
26/07:00am 25.7 26.3 20.3 72 3.5 ESE 17 22 9 12 1015.2 1015.2 0.0
26/06:30am 25.2 26.8 20.7 76 2.9 ESE 13 17 7 9 1014.9 1014.9 0.0
26/06:00am 25.4 26.9 20.6 75 3.1 ESE 13 15 7 8 1014.9 1014.9 0.0
26/05:30am 25.3 27.3 20.8 76 3.0 SE 11 15 6 8 1014.8 1014.8 0.0
26/05:00am 24.8 27.3 21.1 80 2.4 ESE 9 11 5 6 1014.4 1014.4 0.0
26/04:30am 24.6 27.4 21.5 83 2.1 ENE 9 11 5 6 1014.4 1014.4 0.0
26/04:00am 24.4 27.9 21.9 86 1.7 ESE 6 7 3 4 1014.3 1014.3 0.0
26/03:30am 24.4 27.1 22.1 87 1.5 SSE 11 13 6 7 1014.3 1014.3 0.0
26/03:00am 24.3 27.7 22.0 87 1.5 S 7 11 4 6 1014.3 1014.3 0.0
26/02:30am 24.5 27.6 22.2 87 1.5 SSE 9 13 5 7 1014.3 1014.3 0.0
26/02:00am 24.5 27.0 22.4 88 1.4 S 13 15 7 8 1014.4 1014.4 0.0
26/01:30am 24.8 28.7 22.5 87 1.5 SSE 6 7 3 4 1014.4 1014.4 0.0
26/01:00am 25.2 29.9 22.7 86 1.7 SSW 2 6 1 3 1014.4 1014.4 0.0
26/12:30am 25.2 29.2 22.7 86 1.7 S 6 9 3 5 1014.4 1014.4 0.0
26/12:00am 25.2 30.2 22.5 85 1.8 CALM 0 0 0 0 1014.2 1014.2 0.0
 
Date/Time
WST
Temp
°C
App
Temp
°C
Dew
Point
°C
Rel
Hum
%
Delta-T
°C
Wind Press
QNH
hPa
Press
MSL
hPa
Rain since
9am
mm
Dir  Spd
km/h
Gust
km/h
Spd
kts
Gust
kts
25/11:30pm 25.5 30.3 22.8 85 1.8 ESE 2 7 1 4 1014.3 1014.3 0.0
25/11:00pm 26.2 31.3 22.7 81 2.4 CALM 0 0 0 0 1014.8 1014.8 0.0
25/10:30pm 26.4 31.4 22.5 79 2.6 CALM 0 0 0 0 1014.6 1014.6 0.0
25/10:00pm 26.9 31.0 22.3 76 3.1 NNW 4 7 2 4 1014.6 1014.6 0.0
25/09:30pm 26.9 30.5 22.3 76 3.1 W 7 7 4 4 1014.9 1014.9 0.0
25/09:00pm 26.6 30.9 22.0 76 3.1 NNW 2 7 1 4 1014.5 1014.5 0.0
25/08:30pm 26.8 31.0 21.8 74 3.3 NW 2 9 1 5 1014.4 1014.4 0.0
25/08:00pm 26.8 31.6 22.2 76 3.1 CALM 0 0 0 0 1014.3 1014.3 0.0
25/07:30pm 26.5 31.2 21.9 76 3.1 CALM 0 0 0 0 1013.7 1013.7 0.0
25/07:00pm 27.0 30.7 21.5 72 3.7 SSW 4 9 2 5 1013.5 1013.5 0.0
25/06:30pm 27.4 29.7 22.1 73 3.6 SW 13 15 7 8 1013.8 1013.8 0.0
25/06:00pm 27.6 28.9 22.3 73 3.6 WSW 19 22 10 12 1013.7 1013.7 0.0
25/05:30pm 27.8 30.7 21.8 70 4.0 WNW 9 13 5 7 1013.1 1013.1 0.0
25/05:00pm 28.1 29.5 21.1 65 4.6 W 15 19 8 10 1013.3 1013.3 0.0
25/04:30pm 28.2 29.5 21.7 68 4.4 W 17 20 9 11 1013.1 1013.1 0.0
25/04:00pm 28.3 29.8 21.3 65 4.7 W 15 19 8 10 1012.7 1012.7 0.0
25/03:30pm 28.4 30.0 21.4 66 4.7 W 15 19 8 10 1012.6 1012.6 0.0
25/03:00pm 28.3 29.8 20.6 63 5.1 W 13 19 7 10 1012.8 1012.8 0.0
25/02:30pm 28.4 30.1 20.9 64 5.0 WSW 13 17 7 9 1013.0 1013.0 0.0
25/02:00pm 28.3 29.5 20.6 63 5.1 WSW 15 20 8 11 1012.8 1012.8 0.0
25/01:30pm 28.2 29.6 21.0 65 4.8 SW 15 20 8 11 1012.9 1012.9 0.0
25/01:00pm 28.2 30.3 21.7 68 4.4 SSW 13 17 7 9 1013.1 1013.1 0.0
25/12:30pm 28.2 30.2 22.2 70 4.0 SW 15 20 8 11 1013.3 1013.3 0.0
25/12:00pm 28.2 29.8 22.2 70 4.0 WSW 17 20 9 11 1013.6 1013.6 0.0
25/11:30am 28.2 30.8 22.0 69 4.2 SW 11 17 6 9 1013.8 1013.8 0.0
25/11:00am 27.9 30.6 22.2 71 3.8 SW 11 15 6 8 1014.1 1014.1 0.0
25/10:30am 27.5 31.1 22.4 73 3.4 SW 7 13 4 7 1014.4 1014.4 0.0
25/10:00am 27.0 31.6 22.4 76 3.1 NNE 2 9 1 5 1014.5 1014.5 0.0
25/09:30am 26.7 31.6 22.3 77 3.0 CALM 0 0 0 0 1014.5 1014.5 0.0
25/09:00am 26.1 30.8 22.6 81 2.4 SSE 2 7 1 4 1014.0 1014.0 0.0
25/08:30am 25.7 29.4 22.6 83 2.1 SSE 7 9 4 5 1014.0 1014.0 0.0
25/08:00am 25.7 29.2 22.8 84 2.0 SSW 9 13 5 7 1014.0 1014.0 0.0
25/07:30am 25.5 29.0 22.8 85 1.8 SSW 9 13 5 7 1013.9 1013.9 0.0
25/07:00am 25.3 28.6 22.6 85 1.8 S 9 9 5 5 1013.6 1013.6 0.0
25/06:30am 25.4 29.0 22.1 82 2.2 SSW 6 7 3 4 1013.5 1013.5 0.0
25/06:00am 25.6 29.3 22.3 82 2.2 SW 6 7 3 4 1013.5 1013.5 0.0
25/05:30am 25.5 29.2 22.2 82 2.2 SW 6 9 3 5 1013.2 1013.2 0.0
25/05:00am 25.2 28.9 22.3 84 1.9 SSW 6 7 3 4 1013.3 1013.3 0.0
25/04:30am 25.1 28.8 22.2 84 1.9 SSW 6 7 3 4 1013.3 1013.3 0.0
25/04:00am 24.9 27.9 22.0 84 1.9 SSW 9 9 5 5 1013.1 1013.1 0.0
25/03:30am 25.3 27.8 21.8 81 2.3 SW 11 13 6 7 1013.0 1013.0 0.0
25/03:00am 25.3 28.9 22.0 82 2.2 SSW 6 9 3 5 1012.9 1012.9 0.0
25/02:30am 25.1 28.0 21.8 82 2.2 SSW 9 11 5 6 1012.7 1012.7 0.0
25/02:00am 25.8 28.0 21.9 79 2.6 SW 13 17 7 9 1012.8 1012.8 0.0
25/01:30am 25.4 28.4 21.9 81 2.3 SSW 9 11 5 6 1012.9 1012.9 0.0
25/01:00am 25.7 28.3 22.0 80 2.5 SW 11 13 6 7 1012.9 1012.9 0.0
25/12:30am 26.0 29.1 22.1 79 2.6 SSW 9 13 5 7 1012.9 1012.9 0.0
25/12:00am 26.4 29.6 22.3 78 2.8 SW 9 13 5 7 1012.9 1012.9 0.0
 
Date/Time
WST
Temp
°C
App
Temp
°C
Dew
Point
°C
Rel
Hum
%
Delta-T
°C
Wind Press
QNH
hPa
Press
MSL
hPa
Rain since
9am
mm
Dir  Spd
km/h
Gust
km/h
Spd
kts
Gust
kts
24/11:30pm 26.7 29.6 22.5 78 2.8 SW 11 13 6 7 1013.2 1013.2 0.0
24/11:00pm 26.9 29.5 22.7 78 2.8 WSW 13 19 7 10 1013.2 1013.2 0.0
24/10:30pm 27.3 29.2 22.7 76 3.1 W 17 20 9 11 1013.3 1013.3 0.0
24/10:00pm 27.4 29.4 23.0 77 3.0 W 17 20 9 11 1013.3 1013.3 0.0
24/09:30pm 27.6 29.9 22.8 75 3.3 W 15 20 8 11 1013.3 1013.3 0.0
24/09:00pm 27.5 29.9 22.9 76 3.1 WNW 15 19 8 10 1013.4 1013.4 0.0
24/08:30pm 27.5 30.1 22.7 75 3.3 WNW 13 19 7 10 1013.3 1013.3 0.0
24/08:00pm 27.6 29.9 22.8 75 3.3 WNW 15 17 8 9 1013.0 1013.0 0.0
24/07:30pm 27.7 29.9 22.6 74 3.5 WNW 15 19 8 10 1012.8 1012.8 0.0
24/07:00pm 27.8 29.7 22.7 74 3.5 WNW 17 22 9 12 1012.8 1012.8 0.0
24/06:30pm 28.1 29.5 22.6 72 3.7 W 19 24 10 13 1012.5 1012.5 0.0
24/06:00pm 28.1 29.4 22.3 70 3.9 WNW 19 24 10 13 1012.3 1012.3 0.0
24/05:30pm 28.8 29.7 21.6 65 4.8 WNW 19 24 10 13 1012.0 1012.0 0.0
24/05:00pm 29.3 30.4 22.3 66 4.7 NW 20 24 11 13 1011.8 1011.8 0.0
24/04:30pm 30.0 30.9 21.9 62 5.5 WNW 20 24 11 13 1011.6 1011.6 0.0
24/04:00pm 30.5 30.5 21.0 57 6.3 W 22 28 12 15 1011.6 1011.6 0.0
24/03:30pm 30.4 29.9 20.0 53 6.8 WNW 22 28 12 15 1011.4 1011.4 0.0
24/03:00pm 31.8 31.8 21.0 52 7.2 WNW 22 28 12 15 1011.4 1011.4 0.0
24/02:30pm 31.9 30.7 17.4 42 9.2 WNW 20 28 11 15 1011.5 1011.5 0.0
24/02:00pm 32.1 31.0 18.7 45 8.7 WNW 22 30 12 16 1011.7 1011.7 0.0
24/01:30pm 30.9 31.1 20.5 54 6.9 NW 20 26 11 14 1011.9 1011.9 0.0
24/01:00pm 31.2 32.0 21.4 56 6.6 WNW 19 26 10 14 1012.1 1012.1 0.0
24/12:30pm 31.1 32.5 21.9 58 6.2 WNW 17 26 9 14 1012.3 1012.3 0.0
24/12:00pm 30.7 31.9 21.5 58 6.2 WNW 17 22 9 12 1012.7 1012.7 0.0
24/11:30am 30.7 32.6 22.0 59 5.9 WNW 15 19 8 10 1013.3 1013.3 0.0
24/11:00am 30.1 32.4 22.0 62 5.5 WNW 13 19 7 10 1013.7 1013.7 0.0
24/10:30am 29.7 31.9 21.9 63 5.3 W 13 17 7 9 1014.1 1014.1 0.0
24/10:00am 28.9 30.8 21.4 64 5.0 W 13 17 7 9 1014.5 1014.5 0.0
24/09:30am 28.3 30.7 21.6 67 4.5 SW 11 17 6 9 1014.5 1014.5 0.0
24/09:00am 28.2 30.5 22.0 69 4.2 SW 13 17 7 9 1014.3 1014.3 0.0
24/08:30am 27.5 30.6 22.2 73 3.6 SSW 9 15 5 8 1014.3 1014.3 0.0
24/08:00am 26.8 30.0 22.4 77 3.0 S 9 15 5 8 1014.0 1014.0 0.0
24/07:30am 25.5 29.3 22.8 85 1.8 S 7 11 4 6 1013.9 1013.9 0.0
24/07:00am 24.4 27.9 22.8 91 1.1 SSW 9 11 5 6 1013.7 1013.7 0.0
24/06:30am 24.0 27.6 23.0 94 0.7 SSW 9 11 5 6 1013.4 1013.4 0.0
24/06:00am 24.0 27.6 23.0 94 0.7 SSW 9 13 5 7 1013.2 1013.2 0.0
24/05:30am 24.4 27.7 23.2 93 0.8 SW 11 13 6 7 1013.0 1013.0 0.0
24/05:00am 24.8 27.2 23.0 90 1.2 SW 15 19 8 10 1013.0 1013.0 0.0
24/04:30am 25.2 27.8 23.3 89 1.3 SW 15 17 8 9 1012.7 1012.7 0.0
24/04:00am 25.3 28.3 23.4 89 1.3 WSW 13 17 7 9 1012.8 1012.8 0.0
24/03:30am 25.2 28.2 23.4 90 1.2 SW 13 15 7 8 1012.8 1012.8 0.0
24/03:00am 25.2 28.2 23.3 89 1.3 SW 13 15 7 8 1012.7 1012.7 0.0
24/02:30am 25.5 28.5 23.4 88 1.4 SW 13 15 7 8 1012.9 1012.9 0.0
24/02:00am 25.7 28.8 23.6 88 1.4 SW 13 15 7 8 1013.0 1013.0 0.0
24/01:30am 25.7 28.7 23.4 87 1.6 SW 13 15 7 8 1013.3 1013.3 0.0
24/01:00am 26.0 28.7 23.5 86 1.7 SW 15 19 8 10 1013.3 1013.3 0.0
24/12:30am 26.3 29.1 23.6 85 1.8 WSW 15 20 8 11 1013.8 1013.8 0.0
24/12:00am 26.5 28.9 23.6 84 2.0 WSW 17 22 9 12 1014.1 1014.1 0.0
 
Date/Time
WST
Temp
°C
App
Temp
°C
Dew
Point
°C
Rel
Hum
%
Delta-T
°C
Wind Press
QNH
hPa
Press
MSL
hPa
Rain since
9am
mm
Dir  Spd
km/h
Gust
km/h
Spd
kts
Gust
kts
23/11:30pm 26.6 28.8 23.9 85 1.9 WSW 19 20 10 11 1014.1 1014.1 0.0
23/11:00pm 26.7 28.6 23.8 84 2.0 WSW 20 26 11 14 1014.1 1014.1 0.0
23/10:30pm 27.0 28.9 23.7 82 2.3 WSW 20 26 11 14 1014.2 1014.2 0.0
23/10:00pm 27.2 28.5 23.4 80 2.6 WSW 22 28 12 15 1014.3 1014.3 0.0
23/09:30pm 27.3 28.7 23.5 80 2.6 WSW 22 26 12 14 1014.3 1014.3 0.0
23/09:00pm 27.5 29.0 23.7 80 2.6 WSW 22 26 12 14 1014.1 1014.1 0.0
23/08:30pm 27.8 29.0 23.8 79 2.8 W 24 28 13 15 1014.0 1014.0 0.0
23/08:00pm 27.9 29.2 24.1 80 2.6 W 24 30 13 16 1013.7 1013.7 0.0
23/07:30pm 28.0 28.9 24.0 79 2.8 W 26 30 14 16 1013.1 1013.1 0.0
23/07:00pm 28.2 29.6 24.2 79 2.8 W 24 30 13 16 1012.7 1012.7 0.0
23/06:30pm 28.4 29.8 24.2 78 2.9 W 24 30 13 16 1012.3 1012.3 0.0
23/06:00pm 28.7 30.0 24.0 76 3.3 W 24 30 13 16 1012.0 1012.0 0.0
23/05:30pm 29.6 30.6 23.5 69 4.2 W 24 28 13 15 1011.6 1011.6 0.0
23/05:00pm 30.6 31.3 23.0 64 5.2 W 24 30 13 16 1011.5 1011.5 0.0
23/04:30pm 31.1 31.4 21.6 57 6.4 WNW 22 30 12 16 1011.3 1011.3 0.0
23/04:00pm 31.6 31.8 20.5 51 7.4 WNW 20 28 11 15 1011.2 1011.2 0.0
23/03:30pm 32.3 32.2 19.9 48 8.2 WNW 20 26 11 14 1011.1 1011.1 0.0
23/03:00pm 32.5 32.0 19.0 44 8.8 WNW 20 26 11 14 1011.1 1011.1 0.0
23/02:30pm 33.0 32.5 18.7 42 9.3 WNW 19 24 10 13 1011.2 1011.2 0.0
23/02:00pm 33.0 33.4 19.8 45 8.7 NW 17 24 9 13 1011.4 1011.4 0.0
23/01:30pm 33.1 34.6 20.6 47 8.4 NW 13 20 7 11 1011.5 1011.5 0.0
23/01:00pm 33.3 35.3 20.8 48 8.4 NNW 11 17 6 9 1011.7 1011.7 0.0
23/12:30pm 32.3 34.4 20.9 51 7.6 N 11 15 6 8 1012.0 1012.0 0.0
23/12:00pm 32.0 33.4 20.3 50 7.8 N 13 17 7 9 1012.6 1012.6 0.0
23/11:30am 31.2 33.0 21.1 55 6.8 N 13 17 7 9 1013.1 1013.1 0.0
23/11:00am 30.5 32.4 21.3 58 6.2 NE 13 19 7 10 1013.5 1013.5 0.0
23/10:30am 31.2 34.1 19.9 51 7.4 E 4 9 2 5 1013.9 1013.9 0.0

Other Formats:

Comma delimited format used in spreadsheet applications
http://www.bom.gov.au/fwo/IDW60801/IDW60801.95307.axf

JavaScript Object Notation format (JSON) in row-major order
http://www.bom.gov.au/fwo/IDW60801/IDW60801.95307.json